createdAt,value
2018-12-14T00:02:29.943Z,88.23
2018-12-14T00:05:18.138Z,88.22
2018-12-14T00:08:05.633Z,88.31
2018-12-14T00:10:52.727Z,88.26
2018-12-14T00:13:40.079Z,88.42
2018-12-14T00:16:27.964Z,88.52
2018-12-14T00:19:15.890Z,88.60
2018-12-14T00:22:05.234Z,88.71
2018-12-14T00:24:52.631Z,87.43
2018-12-14T00:27:40.797Z,87.98
2018-12-14T00:30:28.654Z,88.19
2018-12-14T00:33:21.490Z,88.32
2018-12-14T00:36:18.112Z,88.48
2018-12-14T00:39:05.793Z,88.56
2018-12-14T00:41:52.684Z,88.60
2018-12-14T00:44:40.429Z,88.70
2018-12-14T00:47:27.669Z,88.64
2018-12-14T00:50:22.454Z,88.61
2018-12-14T00:53:12.845Z,88.55
2018-12-14T00:56:04.310Z,88.53
2018-12-14T00:58:51.959Z,88.74
2018-12-14T01:01:41.271Z,88.70
2018-12-14T01:04:28.838Z,88.77
2018-12-14T01:07:16.906Z,88.77
2018-12-14T01:10:07.970Z,88.67
2018-12-14T01:12:55.604Z,88.71
2018-12-14T01:15:42.675Z,87.39
2018-12-14T01:18:29.687Z,87.79
2018-12-14T01:21:16.475Z,87.89
2018-12-14T01:24:04.531Z,87.90
2018-12-14T01:26:52.691Z,88.04
2018-12-14T01:29:41.074Z,88.04
2018-12-14T01:32:28.573Z,88.00
2018-12-14T01:35:15.389Z,86.79
2018-12-14T01:38:02.672Z,87.28
2018-12-14T01:40:50.031Z,87.41
2018-12-14T01:43:36.905Z,87.57
2018-12-14T01:46:23.654Z,87.63
2018-12-14T01:49:11.243Z,86.40
2018-12-14T01:51:58.706Z,86.83
2018-12-14T01:54:45.922Z,86.96
2018-12-14T01:57:33.377Z,87.09
2018-12-14T02:00:20.867Z,87.20
2018-12-14T02:03:08.472Z,87.24
2018-12-14T02:05:55.805Z,87.32
2018-12-14T02:08:43.636Z,87.37
2018-12-14T02:11:30.794Z,87.43
2018-12-14T02:14:18.212Z,87.52
2018-12-14T02:17:05.473Z,87.68
2018-12-14T02:19:52.980Z,87.78
2018-12-14T02:22:40.204Z,86.53
2018-12-14T02:25:27.121Z,86.90
2018-12-14T02:28:16.193Z,87.00
2018-12-14T02:31:04.245Z,87.11
2018-12-14T02:33:52.253Z,87.16
2018-12-14T02:36:39.798Z,87.23
2018-12-14T02:39:26.846Z,87.24
2018-12-14T02:42:19.268Z,85.92
2018-12-14T02:45:16.597Z,86.33
2018-12-14T02:48:04.655Z,86.52
2018-12-14T02:54:06.976Z,86.81
2018-12-14T02:56:54.726Z,86.85
2018-12-14T02:59:45.433Z,86.98
2018-12-14T03:02:34.616Z,87.00
2018-12-14T03:05:22.225Z,87.06
2018-12-14T03:08:09.841Z,87.03
2018-12-14T03:10:57.900Z,86.98
2018-12-14T03:13:47.365Z,85.66
2018-12-14T03:16:35.058Z,86.02
2018-12-14T03:19:26.430Z,86.13
2018-12-14T03:22:17.210Z,86.22
2018-12-14T03:25:04.612Z,86.26
2018-12-14T03:27:51.821Z,86.31
2018-12-14T03:30:39.672Z,86.39
2018-12-14T03:33:29.404Z,86.40
2018-12-14T03:36:27.707Z,85.12
2018-12-14T03:39:14.282Z,85.52
2018-12-14T03:42:04.580Z,85.74
2018-12-14T03:44:51.752Z,85.73
2018-12-14T03:47:38.663Z,85.90
2018-12-14T03:50:25.681Z,86.02
2018-12-14T03:53:13.147Z,86.14
2018-12-14T03:56:00.596Z,86.18
2018-12-14T03:58:47.489Z,86.14
2018-12-14T04:01:35.066Z,86.16
2018-12-14T04:04:22.095Z,86.17
2018-12-14T04:07:09.909Z,86.19
2018-12-14T04:10:00.301Z,86.07
2018-12-14T04:12:47.828Z,86.05
2018-12-14T04:15:36.148Z,86.08
2018-12-14T04:18:23.593Z,86.09
2018-12-14T04:21:14.258Z,86.08
2018-12-14T04:24:01.257Z,86.19
2018-12-14T04:26:51.278Z,86.29
2018-12-14T04:29:40.147Z,86.34
2018-12-14T04:32:26.782Z,86.39
2018-12-14T04:35:13.592Z,86.43
2018-12-14T04:38:01.230Z,86.50
2018-12-14T04:40:53.719Z,85.20
2018-12-14T04:43:41.133Z,85.57
2018-12-14T04:46:27.970Z,84.38
2018-12-14T04:49:16.721Z,84.91
2018-12-14T04:52:04.238Z,85.17
2018-12-14T04:54:54.088Z,85.31
2018-12-14T04:57:42.525Z,85.46
2018-12-14T05:00:29.873Z,85.62
2018-12-14T05:03:21.257Z,85.70
2018-12-14T05:06:10.256Z,85.76
2018-12-14T05:09:00.764Z,84.48
2018-12-14T05:11:48.369Z,84.88
2018-12-14T05:14:35.395Z,85.15
2018-12-14T05:17:22.365Z,85.33
2018-12-14T05:20:09.856Z,85.48
2018-12-14T05:23:06.152Z,85.63
2018-12-14T05:25:53.783Z,85.74
2018-12-14T05:28:41.004Z,85.91
2018-12-14T05:31:28.707Z,85.99
2018-12-14T05:34:16.863Z,86.07
2018-12-14T05:37:03.783Z,86.12
2018-12-14T05:39:53.422Z,86.12
2018-12-14T05:43:02.374Z,86.16
2018-12-14T05:45:43.166Z,86.26
2018-12-14T05:48:32.022Z,86.29
2018-12-14T05:51:19.214Z,86.35
2018-12-14T05:54:06.221Z,86.43
2018-12-14T05:56:53.603Z,86.48
2018-12-14T05:59:56.790Z,85.20
2018-12-14T06:02:43.779Z,85.61
2018-12-14T06:05:31.060Z,85.85
2018-12-14T06:08:18.812Z,85.97
2018-12-14T06:11:06.222Z,86.04
2018-12-14T06:14:05.075Z,86.10
2018-12-14T06:16:53.447Z,86.23
2018-12-14T06:19:40.710Z,86.36
2018-12-14T06:22:28.012Z,86.50
2018-12-14T06:25:15.983Z,86.54
2018-12-14T06:28:05.364Z,86.66
2018-12-14T06:30:54.997Z,86.72
2018-12-14T06:33:45.991Z,86.74
2018-12-14T06:36:33.206Z,86.82
2018-12-14T06:39:20.093Z,86.85
2018-12-14T06:42:08.392Z,86.88
2018-12-14T06:44:56.155Z,85.64
2018-12-14T06:47:45.427Z,86.09
2018-12-14T06:50:34.106Z,86.21
2018-12-14T06:53:21.731Z,86.33
2018-12-14T06:56:09.762Z,86.39
2018-12-14T06:58:57.041Z,86.46
2018-12-14T07:01:44.261Z,86.50
2018-12-14T07:04:32.384Z,86.70
2018-12-14T07:07:19.795Z,86.77
2018-12-14T07:10:07.881Z,86.87
2018-12-14T07:12:56.908Z,86.93
2018-12-14T07:15:44.164Z,87.00
2018-12-14T07:18:31.502Z,87.09
2018-12-14T07:21:20.028Z,87.13
2018-12-14T07:27:13.752Z,87.25
2018-12-14T07:30:01.401Z,85.99
2018-12-14T07:32:50.123Z,86.38
2018-12-14T07:35:41.982Z,86.58
2018-12-14T07:38:25.990Z,86.69
2018-12-14T07:41:13.835Z,86.76
2018-12-14T07:44:01.465Z,86.86
2018-12-14T07:46:48.934Z,86.90
2018-12-14T07:49:37.731Z,86.94
2018-12-14T07:52:26.717Z,85.64
2018-12-14T07:55:14.464Z,86.02
2018-12-14T07:58:01.613Z,86.21
2018-12-14T08:03:54.399Z,86.39
2018-12-14T08:06:41.005Z,86.46
2018-12-14T08:09:28.636Z,86.51
2018-12-14T08:12:19.079Z,86.56
2018-12-14T08:15:13.731Z,86.57
2018-12-14T08:21:09.300Z,86.57
2018-12-14T08:23:56.661Z,85.16
2018-12-14T08:26:43.839Z,85.53
2018-12-14T08:29:31.287Z,85.66
2018-12-14T08:32:20.422Z,85.70
2018-12-14T08:35:10.514Z,85.74
2018-12-14T08:37:57.114Z,85.74
2018-12-14T08:40:43.956Z,85.75
2018-12-14T08:43:30.934Z,85.77
2018-12-14T08:46:18.181Z,85.71
2018-12-14T08:49:05.004Z,85.73
2018-12-14T08:51:52.297Z,85.70
2018-12-14T08:54:39.427Z,85.72
2018-12-14T08:57:26.461Z,85.45
2018-12-14T09:00:13.597Z,85.32
2018-12-14T09:03:01.960Z,85.29
2018-12-14T09:05:49.379Z,85.23
2018-12-14T09:08:36.270Z,85.12
2018-12-14T09:11:24.436Z,85.11
2018-12-14T09:14:12.120Z,85.07
2018-12-14T09:16:59.029Z,84.95
2018-12-14T09:19:46.192Z,84.85
2018-12-14T09:22:34.044Z,84.81
2018-12-14T09:28:27.172Z,84.61
2018-12-14T09:31:18.174Z,84.49
2018-12-14T09:34:08.344Z,84.45
2018-12-14T09:36:55.185Z,84.13
2018-12-14T09:39:42.953Z,84.03
2018-12-14T09:42:29.890Z,83.91
2018-12-14T09:45:16.751Z,83.77
2018-12-14T09:48:04.459Z,82.26
2018-12-14T09:51:00.783Z,82.54
2018-12-14T09:53:49.197Z,80.61
2018-12-14T09:56:37.070Z,81.34
2018-12-14T09:59:24.078Z,81.75
2018-12-14T10:02:11.219Z,81.85
2018-12-14T10:04:58.576Z,81.75
2018-12-14T10:07:46.993Z,81.96
2018-12-14T10:16:48.534Z,82.42
2018-12-14T10:19:35.881Z,82.32
2018-12-14T10:22:25.591Z,82.38
2018-12-14T10:25:12.828Z,82.17
2018-12-14T10:27:59.989Z,82.31
2018-12-14T10:30:47.004Z,82.22
2018-12-14T10:33:34.329Z,82.42
2018-12-14T10:36:21.719Z,82.41
2018-12-14T10:39:08.809Z,82.08
2018-12-14T10:41:56.144Z,81.85
2018-12-14T10:44:43.924Z,81.69
2018-12-14T10:47:30.783Z,79.74
2018-12-14T10:50:18.007Z,80.32
2018-12-14T10:53:05.490Z,80.40
2018-12-14T10:55:55.600Z,80.48
2018-12-14T10:58:42.891Z,80.57
2018-12-14T11:01:50.829Z,80.74
2018-12-14T11:04:38.701Z,80.75
2018-12-14T11:07:27.087Z,80.76
2018-12-14T11:10:14.344Z,80.92
2018-12-14T11:13:01.990Z,80.75
2018-12-14T11:15:53.899Z,80.38
2018-12-14T11:18:41.133Z,80.33
2018-12-14T11:24:37.372Z,80.51
2018-12-14T11:27:28.219Z,80.61
2018-12-14T11:30:15.270Z,80.74
2018-12-14T11:33:02.386Z,80.81
2018-12-14T11:35:58.232Z,78.23
2018-12-14T11:38:51.888Z,78.99
2018-12-14T11:41:38.845Z,79.52
2018-12-14T11:44:27.046Z,79.45
2018-12-14T11:47:18.300Z,79.67
2018-12-14T11:50:20.101Z,79.74
2018-12-14T11:53:08.140Z,77.29
2018-12-14T11:55:55.468Z,77.81
2018-12-14T11:58:42.965Z,78.55
2018-12-14T12:01:32.278Z,78.89
2018-12-14T12:04:19.177Z,76.72
2018-12-14T12:07:06.112Z,77.66
2018-12-14T12:09:59.885Z,78.33
2018-12-14T12:12:57.189Z,75.66
2018-12-14T12:15:44.786Z,74.12
2018-12-14T12:18:31.771Z,76.10
2018-12-14T12:21:19.259Z,74.56
2018-12-14T12:27:13.545Z,75.95
2018-12-14T12:30:01.074Z,76.81
2018-12-14T12:32:48.401Z,77.57
2018-12-14T12:35:35.369Z,78.05
2018-12-14T12:38:24.256Z,78.56
2018-12-14T12:41:13.847Z,78.78
2018-12-14T12:44:00.904Z,78.96
2018-12-14T12:46:47.968Z,79.28
2018-12-14T12:49:35.494Z,79.39
2018-12-14T12:52:22.291Z,79.54
2018-12-14T12:55:10.467Z,79.69
2018-12-14T12:58:05.280Z,79.75
2018-12-14T13:03:59.033Z,79.95
2018-12-14T13:06:46.507Z,80.11
2018-12-14T13:09:33.837Z,78.02
2018-12-14T13:12:21.218Z,78.84
2018-12-14T13:15:08.397Z,79.36
2018-12-14T13:17:55.189Z,79.53
2018-12-14T13:20:42.136Z,79.88
2018-12-14T13:23:29.572Z,77.81
2018-12-14T13:26:16.523Z,78.77
2018-12-14T13:29:03.811Z,77.11
2018-12-14T13:31:50.984Z,78.18
2018-12-14T13:34:38.708Z,78.78
2018-12-14T13:37:25.725Z,79.21
2018-12-14T13:40:14.193Z,79.47
2018-12-14T13:43:01.342Z,77.32
2018-12-14T13:45:48.655Z,78.30
2018-12-14T13:48:36.743Z,79.12
2018-12-14T13:51:24.052Z,79.47
2018-12-14T13:54:11.122Z,79.74
2018-12-14T13:57:02.600Z,79.64
2018-12-14T13:59:49.789Z,79.93
2018-12-14T14:02:37.032Z,80.13
2018-12-14T14:05:26.095Z,80.29
2018-12-14T14:08:13.111Z,80.37
2018-12-14T14:11:00.525Z,78.44
2018-12-14T14:16:54.940Z,79.56
2018-12-14T14:19:42.508Z,79.96
2018-12-14T14:22:38.257Z,80.25
2018-12-14T14:25:25.765Z,80.43
2018-12-14T14:28:13.468Z,80.48
2018-12-14T14:31:01.191Z,80.69
2018-12-14T14:33:54.606Z,80.74
2018-12-14T14:36:47.067Z,78.76
2018-12-14T14:39:34.920Z,79.58
2018-12-14T14:42:24.269Z,78.21
2018-12-14T14:45:13.543Z,79.29
2018-12-14T14:48:01.054Z,80.05
2018-12-14T14:50:49.029Z,80.32
2018-12-14T14:53:37.566Z,80.61
2018-12-14T14:56:25.253Z,80.78
2018-12-14T14:59:12.601Z,79.03
2018-12-14T15:02:03.987Z,79.80
2018-12-14T15:04:54.124Z,80.36
2018-12-14T15:07:49.461Z,80.72
2018-12-14T15:10:40.851Z,80.90
2018-12-14T15:13:28.132Z,81.08
2018-12-14T15:16:17.691Z,81.27
2018-12-14T15:19:04.991Z,79.74
2018-12-14T15:21:54.964Z,80.46
2018-12-14T15:24:41.914Z,80.95
2018-12-14T15:27:29.906Z,79.30
2018-12-14T15:30:16.633Z,80.08
2018-12-14T15:33:04.099Z,78.57
2018-12-14T15:35:52.126Z,79.59
2018-12-14T15:38:40.474Z,80.19
2018-12-14T15:41:28.525Z,80.58
2018-12-14T15:47:26.057Z,80.04
2018-12-14T15:50:12.954Z,80.56
2018-12-14T15:53:02.933Z,81.01
2018-12-14T15:55:50.222Z,81.33
2018-12-14T15:58:37.478Z,81.52
2018-12-14T16:01:24.690Z,81.73
2018-12-14T16:07:17.845Z,78.93
2018-12-14T16:10:05.515Z,80.18
2018-12-14T16:12:52.991Z,80.81
2018-12-14T16:15:40.447Z,81.26
2018-12-14T16:18:37.589Z,81.59
2018-12-14T16:21:27.012Z,81.85
2018-12-14T16:24:14.855Z,82.00
2018-12-14T16:27:02.208Z,82.12
2018-12-14T16:29:50.594Z,82.11
2018-12-14T16:32:37.785Z,82.19
2018-12-14T16:35:25.655Z,82.42
2018-12-14T16:38:13.896Z,82.39
2018-12-14T16:41:05.809Z,82.48
2018-12-14T16:43:53.307Z,82.50
2018-12-14T16:46:45.652Z,82.53
2018-12-14T16:49:34.587Z,82.52
2018-12-14T16:52:22.226Z,82.57
2018-12-14T16:55:12.208Z,82.56
2018-12-14T16:57:59.360Z,82.60
2018-12-14T17:00:46.825Z,82.69
2018-12-14T17:03:34.673Z,81.20
2018-12-14T17:06:21.934Z,81.77
2018-12-14T17:09:08.894Z,80.35
2018-12-14T17:11:55.880Z,81.12
2018-12-14T17:14:43.379Z,81.58
2018-12-14T17:17:32.039Z,81.93
2018-12-14T17:20:19.126Z,82.13
2018-12-14T17:23:06.980Z,82.34
2018-12-14T17:25:54.701Z,82.53
2018-12-14T17:28:45.364Z,82.65
2018-12-14T17:31:32.558Z,82.87
2018-12-14T17:34:19.809Z,82.95
2018-12-14T17:37:07.109Z,83.08
2018-12-14T17:39:54.899Z,83.14
2018-12-14T17:42:41.778Z,83.25
2018-12-14T17:45:28.941Z,83.27
2018-12-14T17:48:18.746Z,83.38
2018-12-14T17:51:06.142Z,83.42
2018-12-14T17:53:56.024Z,83.56
2018-12-14T17:56:44.366Z,83.64
2018-12-14T17:59:31.709Z,83.66
2018-12-14T18:02:22.254Z,83.89
2018-12-14T18:05:09.525Z,83.94
2018-12-14T18:07:56.820Z,84.00
2018-12-14T18:10:44.655Z,84.03
2018-12-14T18:13:32.231Z,84.08
2018-12-14T18:16:19.616Z,84.06
2018-12-14T18:19:08.151Z,84.19
2018-12-14T18:21:57.826Z,84.23
2018-12-14T18:24:45.214Z,84.26
2018-12-14T18:27:33.194Z,84.28
2018-12-14T18:30:24.992Z,84.39
2018-12-14T18:33:14.286Z,84.41
2018-12-14T18:42:31.996Z,84.55
2018-12-14T18:45:21.373Z,83.13
2018-12-14T18:48:09.180Z,83.67
2018-12-14T18:54:07.385Z,84.20
2018-12-14T18:57:06.163Z,84.34
2018-12-14T18:59:53.258Z,84.49
2018-12-14T19:02:43.233Z,84.52
2018-12-14T19:05:32.882Z,84.61
2018-12-14T19:08:21.456Z,84.65
2018-12-14T19:11:08.988Z,84.77
2018-12-14T19:13:55.968Z,84.83
2018-12-14T19:16:45.302Z,84.86
2018-12-14T19:19:34.517Z,84.85
2018-12-14T19:22:26.375Z,84.92
2018-12-14T19:25:14.034Z,85.02
2018-12-14T19:28:01.766Z,83.63
2018-12-14T19:30:49.472Z,84.06
2018-12-14T19:33:38.578Z,84.31
2018-12-14T19:36:29.111Z,84.37
2018-12-14T19:39:16.517Z,84.53
2018-12-14T19:42:06.689Z,83.22
2018-12-14T19:44:56.405Z,83.79
2018-12-14T19:47:45.106Z,84.07
2018-12-14T19:50:32.938Z,84.23
2018-12-14T19:53:22.280Z,84.40
2018-12-14T19:56:09.807Z,84.56
2018-12-14T19:58:59.297Z,84.68
2018-12-14T20:01:55.089Z,84.76
2018-12-14T20:04:48.278Z,84.85
2018-12-14T20:07:36.897Z,84.92
2018-12-14T20:10:24.145Z,85.00
2018-12-14T20:13:12.789Z,85.01
2018-12-14T20:16:01.569Z,85.10
2018-12-14T20:19:02.840Z,85.19
2018-12-14T20:21:50.030Z,85.26
2018-12-14T20:24:37.133Z,85.25
2018-12-14T20:27:25.036Z,85.33
2018-12-14T20:30:14.923Z,85.34
2018-12-14T20:33:03.147Z,85.30
2018-12-14T20:35:54.387Z,83.89
2018-12-14T20:38:43.696Z,84.35
2018-12-14T20:41:31.378Z,84.61
2018-12-14T20:44:18.322Z,84.76
2018-12-14T20:47:05.673Z,84.82
2018-12-14T20:49:55.579Z,84.94
2018-12-14T20:52:45.339Z,85.01
2018-12-14T20:55:32.045Z,85.10
2018-12-14T20:58:19.592Z,85.25
2018-12-14T21:01:07.250Z,85.37
2018-12-14T21:03:54.767Z,85.50
2018-12-14T21:06:41.609Z,85.54
2018-12-14T21:09:28.711Z,84.22
2018-12-14T21:12:16.197Z,84.65
2018-12-14T21:15:13.764Z,84.89
2018-12-14T21:18:01.560Z,85.00
2018-12-14T21:20:48.425Z,85.11
2018-12-14T21:23:37.580Z,85.17
2018-12-14T21:26:27.047Z,83.80
2018-12-14T21:29:16.147Z,84.37
2018-12-14T21:32:03.079Z,84.60
2018-12-14T21:34:51.074Z,84.78
2018-12-14T21:37:38.521Z,84.93
2018-12-14T21:40:25.840Z,85.04
2018-12-14T21:43:14.586Z,85.16
2018-12-14T21:46:01.974Z,85.29
2018-12-14T21:48:50.538Z,85.39
2018-12-14T21:51:37.660Z,85.47
2018-12-14T21:54:25.265Z,84.13
2018-12-14T21:57:15.548Z,84.53
2018-12-14T22:00:04.704Z,84.73
2018-12-14T22:02:53.089Z,84.86
2018-12-14T22:05:40.277Z,84.96
2018-12-14T22:08:30.033Z,84.99
2018-12-14T22:11:16.937Z,85.07
2018-12-14T22:14:04.351Z,83.73
2018-12-14T22:16:51.858Z,82.72
2018-12-14T22:19:41.205Z,83.54
2018-12-14T22:22:28.728Z,82.25
2018-12-14T22:25:16.310Z,81.40
2018-12-14T22:28:03.719Z,82.51
2018-12-14T22:30:51.107Z,83.09
2018-12-14T22:33:38.290Z,83.44
2018-12-14T22:36:25.965Z,82.19
2018-12-14T22:39:15.931Z,83.10
2018-12-14T22:42:03.507Z,83.57
2018-12-14T22:44:51.125Z,83.93
2018-12-14T22:47:38.413Z,84.22
2018-12-14T22:50:25.932Z,84.40
2018-12-14T22:53:15.776Z,84.53
2018-12-14T22:56:02.942Z,84.71
2018-12-14T22:58:52.095Z,84.89
2018-12-14T23:01:39.394Z,84.90
2018-12-14T23:04:26.873Z,84.95
2018-12-14T23:07:14.090Z,85.00
2018-12-14T23:10:01.841Z,85.10
2018-12-14T23:12:50.965Z,85.19
2018-12-14T23:15:39.370Z,85.14
2018-12-14T23:18:26.919Z,85.17
2018-12-14T23:24:22.946Z,85.27
2018-12-14T23:27:10.886Z,85.27
2018-12-14T23:29:58.807Z,85.30
2018-12-14T23:32:46.084Z,85.31
2018-12-14T23:35:35.295Z,85.28
2018-12-14T23:38:24.696Z,85.30
2018-12-14T23:41:12.600Z,85.31
2018-12-14T23:44:00.844Z,85.24
2018-12-14T23:46:48.778Z,85.24
2018-12-14T23:49:39.589Z,85.27
2018-12-14T23:52:23.753Z,85.28
2018-12-14T23:55:10.491Z,85.19
2018-12-14T23:57:57.794Z,85.12
